Time;durP1;ratioP1;P1;durP2;ratioP2;P2;SDS_P1;SDS_P2;PMS_P1;PMS_P2;Temp;Humidity;BMP_temperature;BMP_pressure;BME280_temperature;BME280_humidity;BME280_pressure;Samples;Min_cycle;Max_cycle;Signal;HPM_P1;HPM_P2
2023/12/14 00:01:14;;;;;;;2.83;0.82;;;19.50;54.20;;;;;;8356726;28;20401;-47
2023/12/14 00:05:15;;;;;;;0.60;0.60;;;19.50;54.30;;;;;;8355576;28;20028;-47
2023/12/14 00:09:16;;;;;;;1.90;0.70;;;19.50;54.20;;;;;;8355703;28;20049;-49
2023/12/14 00:13:17;;;;;;;2.75;1.40;;;19.50;54.10;;;;;;8353299;28;20045;-48
2023/12/14 00:17:18;;;;;;;2.63;0.65;;;19.40;54.10;;;;;;8355027;28;20094;-47
2023/12/14 00:21:18;;;;;;;1.95;0.43;;;19.40;54.40;;;;;;8355420;28;20029;-48
2023/12/14 00:25:19;;;;;;;1.45;0.75;;;19.40;54.30;;;;;;8355737;28;20503;-48
2023/12/14 00:29:20;;;;;;;2.05;0.60;;;19.40;54.30;;;;;;8355108;28;20075;-48
2023/12/14 00:33:20;;;;;;;0.45;0.40;;;19.40;54.40;;;;;;8355568;28;20017;-49
2023/12/14 00:37:21;;;;;;;0.65;0.50;;;19.40;54.30;;;;;;8359324;28;20053;-47
2023/12/14 00:41:22;;;;;;;1.00;0.65;;;19.30;54.30;;;;;;8360682;28;20036;-49
2023/12/14 00:45:22;;;;;;;0.70;0.45;;;19.40;54.30;;;;;;8360147;28;20041;-50
2023/12/14 00:49:23;;;;;;;1.95;0.50;;;19.30;54.30;;;;;;8360909;28;20033;-50
2023/12/14 00:53:24;;;;;;;1.40;0.45;;;19.30;54.30;;;;;;8360459;28;20095;-50
2023/12/14 00:57:24;;;;;;;1.67;0.60;;;19.20;54.30;;;;;;8360170;28;20356;-51
2023/12/14 01:01:25;;;;;;;0.93;0.57;;;19.20;54.40;;;;;;8360178;28;20037;-48
2023/12/14 01:05:26;;;;;;;1.25;0.60;;;19.20;54.50;;;;;;8360166;28;20413;-49
2023/12/14 01:09:27;;;;;;;1.85;0.60;;;19.20;54.50;;;;;;8359944;28;20037;-50
2023/12/14 01:13:27;;;;;;;1.75;0.85;;;19.10;54.40;;;;;;8358948;28;20029;-50
2023/12/14 01:17:28;;;;;;;0.75;0.50;;;19.10;54.50;;;;;;8359993;28;20037;-48
2023/12/14 01:21:29;;;;;;;1.42;0.90;;;19.10;54.50;;;;;;8360003;28;20059;-48
2023/12/14 01:25:30;;;;;;;2.25;0.95;;;19.10;54.50;;;;;;8359871;28;20028;-48
2023/12/14 01:29:30;;;;;;;0.73;0.60;;;19.10;54.50;;;;;;8359599;28;20033;-49
2023/12/14 01:33:31;;;;;;;1.27;0.43;;;19.10;54.50;;;;;;8359964;28;20461;-52
2023/12/14 01:37:32;;;;;;;3.05;1.67;;;19.10;54.50;;;;;;8359413;28;20627;-52
2023/12/14 01:41:33;;;;;;;0.70;0.60;;;19.10;54.50;;;;;;8359761;28;20037;-50
2023/12/14 01:45:33;;;;;;;0.45;0.32;;;19.10;54.60;;;;;;8359862;28;20406;-51
2023/12/14 01:49:34;;;;;;;2.45;0.60;;;19.10;54.60;;;;;;8365124;28;20037;-51
2023/12/14 01:53:34;;;;;;;0.85;0.50;;;19.00;54.60;;;;;;8366137;28;20060;-51
2023/12/14 01:57:35;;;;;;;0.90;0.50;;;19.00;54.60;;;;;;8365947;28;20106;-52
2023/12/14 02:01:46;;;;;;;2.17;0.63;;;19.00;54.60;;;;;;8365799;28;20044;-52
2023/12/14 02:05:47;;;;;;;;;;;19.00;54.70;;;;;;8366205;28;20486;-50
2023/12/14 02:09:50;;;;;;;0.98;0.40;;;19.00;54.70;;;;;;8365562;28;20290;-51
2023/12/14 02:13:51;;;;;;;0.73;0.50;;;19.00;54.70;;;;;;8365345;28;20040;-52
2023/12/14 02:17:51;;;;;;;0.75;0.50;;;18.90;54.70;;;;;;8365514;28;20479;-52
2023/12/14 02:21:52;;;;;;;0.63;0.47;;;18.90;54.70;;;;;;8365125;28;20099;-52
2023/12/14 02:25:53;;;;;;;1.15;0.40;;;18.90;54.70;;;;;;8364873;28;20048;-51
2023/12/14 02:29:53;;;;;;;1.23;0.60;;;18.90;54.70;;;;;;8365034;28;20124;-53
2023/12/14 02:33:54;;;;;;;2.25;0.70;;;18.90;54.70;;;;;;8364745;28;20487;-51
2023/12/14 02:37:55;;;;;;;0.60;0.50;;;18.90;54.60;;;;;;8364595;28;20060;-51
2023/12/14 02:41:55;;;;;;;0.90;0.50;;;19.00;54.70;;;;;;8364728;28;20036;-52
2023/12/14 02:46:01;;;;;;;0.70;0.40;;;18.90;54.70;;;;;;8364298;28;20083;-48
2023/12/14 02:50:02;;;;;;;0.80;0.50;;;18.90;54.70;;;;;;8364100;28;20029;-49
2023/12/14 02:54:03;;;;;;;0.77;0.50;;;18.90;54.70;;;;;;8364161;28;20041;-48
2023/12/14 02:58:04;;;;;;;2.47;0.85;;;18.90;54.70;;;;;;8362804;28;20044;-49
2023/12/14 03:02:04;;;;;;;1.20;0.73;;;18.90;54.70;;;;;;8364087;28;20441;-48
2023/12/14 03:06:05;;;;;;;1.33;0.60;;;18.90;54.70;;;;;;8363766;28;20065;-50
2023/12/14 03:10:07;;;;;;;1.35;0.50;;;18.90;54.70;;;;;;8363451;28;20029;-48
2023/12/14 03:14:08;;;;;;;0.68;0.55;;;18.90;54.70;;;;;;8363472;28;20029;-51
2023/12/14 03:18:08;;;;;;;0.60;0.40;;;18.90;54.70;;;;;;8363651;28;20123;-48
2023/12/14 03:22:09;;;;;;;0.50;0.40;;;18.90;54.70;;;;;;8363094;28;20036;-49
2023/12/14 03:26:10;;;;;;;1.02;0.40;;;18.90;54.70;;;;;;8363173;28;20029;-49
2023/12/14 03:30:11;;;;;;;0.65;0.50;;;18.90;54.70;;;;;;8363140;28;20079;-48
2023/12/14 03:34:12;;;;;;;0.30;0.30;;;18.90;54.70;;;;;;8362839;28;20029;-49
2023/12/14 03:38:14;;;;;;;1.38;0.60;;;18.90;54.70;;;;;;8361421;28;20052;-49
2023/12/14 03:42:14;;;;;;;0.40;0.40;;;18.90;54.70;;;;;;8362518;28;20482;-49
2023/12/14 03:46:15;;;;;;;0.93;0.52;;;18.90;54.70;;;;;;8362517;28;20394;-48
2023/12/14 03:50:16;;;;;;;0.80;0.30;;;18.90;54.70;;;;;;8362160;28;20505;-49
2023/12/14 03:54:16;;;;;;;2.08;0.45;;;18.80;54.70;;;;;;8362733;28;20058;-51
2023/12/14 03:58:17;;;;;;;0.45;0.40;;;18.80;54.70;;;;;;8362281;28;20095;-50
2023/12/14 04:02:18;;;;;;;0.60;0.45;;;18.80;54.70;;;;;;8362120;28;20037;-50
2023/12/14 04:06:18;;;;;;;1.23;0.47;;;18.80;54.70;;;;;;8361892;28;20483;-50
2023/12/14 04:10:19;;;;;;;0.50;0.32;;;18.80;54.70;;;;;;8361476;28;20055;-50
2023/12/14 04:14:20;;;;;;;0.75;0.45;;;18.90;54.70;;;;;;8361558;28;20116;-52
2023/12/14 04:18:20;;;;;;;0.85;0.35;;;18.90;54.70;;;;;;8361579;28;20036;-50
2023/12/14 04:22:21;;;;;;;0.38;0.30;;;18.80;54.70;;;;;;8361142;28;20045;-52
2023/12/14 04:26:22;;;;;;;0.32;0.30;;;18.80;54.70;;;;;;8360072;28;20037;-49
2023/12/14 04:30:22;;;;;;;0.40;0.40;;;18.80;54.60;;;;;;8361048;28;20052;-50
2023/12/14 04:34:23;;;;;;;0.45;0.38;;;18.80;54.70;;;;;;8360923;28;20037;-51
2023/12/14 04:38:24;;;;;;;0.40;0.40;;;18.80;54.70;;;;;;8359664;28;20064;-49
2023/12/14 04:42:24;;;;;;;0.30;0.30;;;18.80;54.70;;;;;;8360698;28;20434;-50
2023/12/14 04:46:25;;;;;;;0.77;0.47;;;18.90;54.70;;;;;;8360718;28;20033;-50
2023/12/14 04:50:26;;;;;;;0.50;0.50;;;18.90;54.70;;;;;;8360798;28;20037;-51
2023/12/14 04:54:26;;;;;;;1.20;0.45;;;18.80;54.70;;;;;;8360509;28;20482;-49
2023/12/14 04:58:27;;;;;;;0.43;0.40;;;18.80;54.70;;;;;;8360380;28;20032;-51
2023/12/14 05:02:28;;;;;;;0.40;0.40;;;18.80;54.70;;;;;;8360267;28;20049;-50
2023/12/14 05:06:29;;;;;;;0.35;0.30;;;18.80;54.70;;;;;;8360354;28;20238;-52
2023/12/14 05:10:30;;;;;;;0.88;0.40;;;18.80;54.70;;;;;;8360104;28;20029;-51
2023/12/14 05:14:31;;;;;;;0.70;0.32;;;18.80;54.70;;;;;;8360151;28;20073;-51
2023/12/14 05:18:31;;;;;;;0.70;0.43;;;18.90;54.60;;;;;;8360235;28;20112;-51
2023/12/14 05:22:32;;;;;;;0.28;0.28;;;18.90;54.50;;;;;;8359270;28;20044;-51
2023/12/14 05:26:33;;;;;;;0.40;0.40;;;19.00;54.40;;;;;;8359752;28;20094;-52
2023/12/14 05:30:33;;;;;;;0.40;0.30;;;19.00;54.20;;;;;;8359552;28;20037;-51
2023/12/14 05:34:34;;;;;;;0.40;0.40;;;19.10;54.70;;;;;;8359838;28;20037;-51
2023/12/14 05:38:35;;;;;;;0.30;0.30;;;19.10;54.10;;;;;;8359384;28;20045;-51
2023/12/14 05:42:36;;;;;;;0.68;0.20;;;19.10;54.00;;;;;;8359614;28;20052;-53
2023/12/14 05:46:36;;;;;;;0.70;0.30;;;19.10;54.00;;;;;;8358306;28;20044;-50
2023/12/14 05:50:37;;;;;;;0.40;0.30;;;19.10;54.00;;;;;;8359252;28;20036;-52
2023/12/14 05:54:39;;;;;;;0.77;0.40;;;19.10;53.90;;;;;;8359341;28;20029;-50
2023/12/14 05:58:40;;;;;;;0.40;0.40;;;19.10;53.90;;;;;;8359613;28;20033;-51
2023/12/14 06:02:41;;;;;;;0.45;0.30;;;19.20;53.90;;;;;;8359243;28;20037;-52
2023/12/14 06:06:42;;;;;;;0.50;0.40;;;19.20;53.90;;;;;;8359507;28;20544;-52
2023/12/14 06:10:42;;;;;;;0.55;0.35;;;19.20;53.90;;;;;;8359089;28;20457;-52
2023/12/14 06:14:44;;;;;;;0.38;0.38;;;19.20;53.90;;;;;;8358979;28;20036;-54
2023/12/14 06:18:45;;;;;;;0.30;0.30;;;19.20;53.90;;;;;;8359276;28;20021;-53
2023/12/14 06:22:46;;;;;;;0.85;0.50;;;19.20;53.90;;;;;;8358925;28;20033;-54
2023/12/14 06:26:47;;;;;;;0.30;0.30;;;19.20;53.90;;;;;;8358705;28;20105;-54
2023/12/14 06:30:47;;;;;;;0.50;0.50;;;19.20;53.90;;;;;;8358766;28;20130;-53
2023/12/14 06:34:48;;;;;;;0.63;0.30;;;19.20;53.90;;;;;;8362977;28;20471;-53
2023/12/14 06:38:49;;;;;;;0.40;0.40;;;19.20;53.90;;;;;;8364319;28;20080;-55
2023/12/14 06:42:49;;;;;;;0.30;0.30;;;19.20;53.80;;;;;;8364817;28;20439;-52
2023/12/14 06:46:50;;;;;;;0.30;0.30;;;19.20;53.80;;;;;;8364277;28;20082;-54
2023/12/14 06:50:54;;;;;;;0.35;0.35;;;19.20;53.80;;;;;;8364210;28;20017;-54
2023/12/14 06:54:55;;;;;;;0.93;0.50;;;19.20;53.80;;;;;;8364146;28;20494;-52
2023/12/14 06:58:55;;;;;;;0.40;0.35;;;19.20;53.80;;;;;;8364277;28;20367;-55
2023/12/14 07:02:56;;;;;;;0.52;0.35;;;19.20;53.80;;;;;;8362815;28;20545;-54
2023/12/14 07:06:57;;;;;;;0.52;0.40;;;19.20;53.70;;;;;;8363961;28;20025;-55
2023/12/14 07:10:57;;;;;;;0.30;0.30;;;19.20;53.70;;;;;;8363402;28;20120;-55
2023/12/14 07:14:58;;;;;;;0.28;0.28;;;19.20;54.30;;;;;;8363709;28;20037;-53
2023/12/14 07:18:59;;;;;;;0.35;0.30;;;19.20;53.80;;;;;;8363712;28;20099;-55
2023/12/14 07:23:00;;;;;;;0.52;0.40;;;19.20;53.80;;;;;;8363258;28;20032;-55
2023/12/14 07:27:00;;;;;;;0.38;0.30;;;19.20;53.80;;;;;;8362014;28;20060;-52
2023/12/14 07:31:01;;;;;;;0.45;0.40;;;19.20;53.80;;;;;;8363131;28;20060;-53
2023/12/14 07:35:02;;;;;;;0.55;0.32;;;19.20;53.70;;;;;;8363011;28;20033;-52
2023/12/14 07:39:03;;;;;;;1.02;0.32;;;19.20;53.80;;;;;;8362611;28;20096;-50
2023/12/14 07:43:04;;;;;;;0.40;0.40;;;19.20;53.70;;;;;;8362689;28;20033;-53
2023/12/14 07:47:05;;;;;;;0.35;0.35;;;19.20;53.70;;;;;;8362499;28;20105;-51
2023/12/14 07:51:05;;;;;;;0.38;0.38;;;19.20;53.70;;;;;;8362299;28;20392;-52
2023/12/14 07:55:07;;;;;;;0.22;0.22;;;19.20;53.70;;;;;;8362420;28;20033;-52
2023/12/14 07:59:09;;;;;;;0.40;0.35;;;19.20;53.70;;;;;;8362185;28;20044;-52
2023/12/14 08:03:09;;;;;;;0.32;0.32;;;19.20;53.70;;;;;;8362792;28;20037;-52
2023/12/14 08:07:10;;;;;;;0.32;0.32;;;19.20;53.70;;;;;;8362333;28;20025;-50
2023/12/14 08:11:11;;;;;;;0.40;0.40;;;19.20;53.70;;;;;;8361768;28;20033;-51
2023/12/14 08:15:12;;;;;;;0.60;0.60;;;19.20;53.70;;;;;;8361860;28;20064;-51
2023/12/14 08:19:12;;;;;;;;;;;19.20;53.70;;;;;;8361792;28;20033;-53
2023/12/14 08:23:13;;;;;;;1.70;0.40;;;19.20;53.70;;;;;;8361439;28;20382;-52
2023/12/14 08:27:14;;;;;;;0.90;0.50;;;19.20;53.70;;;;;;8359905;28;20029;-51
2023/12/14 08:31:14;;;;;;;0.57;0.40;;;19.20;53.70;;;;;;8361013;28;20041;-52
2023/12/14 08:35:15;;;;;;;0.55;0.40;;;19.20;53.70;;;;;;8361063;28;20499;-51
2023/12/14 08:39:16;;;;;;;0.45;0.30;;;19.20;53.70;;;;;;8360611;28;20499;-51
2023/12/14 08:43:17;;;;;;;0.50;0.40;;;19.20;53.70;;;;;;8360859;28;20048;-51
2023/12/14 08:47:18;;;;;;;0.40;0.40;;;19.20;53.70;;;;;;8360795;28;20394;-50
2023/12/14 08:51:20;;;;;;;0.30;0.30;;;19.20;53.70;;;;;;8359288;28;20032;-52
2023/12/14 08:55:21;;;;;;;0.40;0.40;;;19.20;53.70;;;;;;8361030;28;20518;-50
2023/12/14 08:59:22;;;;;;;;;;;19.20;53.70;;;;;;8360188;28;20023;-50
2023/12/14 09:03:23;;;;;;;0.30;0.30;;;19.20;53.60;;;;;;8360588;28;19904;-52
2023/12/14 09:07:23;;;;;;;0.57;0.40;;;19.20;53.60;;;;;;8360048;28;20044;-51
2023/12/14 09:11:24;;;;;;;1.98;0.50;;;19.20;53.60;;;;;;8359942;28;20036;-51
2023/12/14 09:15:25;;;;;;;0.30;0.30;;;19.20;53.60;;;;;;8360358;28;20479;-51
2023/12/14 09:19:25;;;;;;;0.30;0.30;;;19.20;53.60;;;;;;8359878;28;20051;-49
2023/12/14 09:23:26;;;;;;;0.52;0.47;;;19.20;53.60;;;;;;8360077;28;20037;-50
2023/12/14 09:27:27;;;;;;;0.40;0.40;;;19.30;53.70;;;;;;8359630;28;20574;-51
2023/12/14 09:31:28;;;;;;;0.40;0.40;;;19.20;53.60;;;;;;8359731;28;20040;-51
2023/12/14 09:35:28;;;;;;;0.40;0.40;;;19.20;53.60;;;;;;8359670;28;20557;-50
2023/12/14 09:39:29;;;;;;;0.73;0.40;;;19.20;53.60;;;;;;8359450;28;20037;-51
2023/12/14 09:43:30;;;;;;;0.95;0.40;;;19.20;53.60;;;;;;8359674;28;20044;-52
2023/12/14 09:47:31;;;;;;;1.55;0.30;;;19.20;53.60;;;;;;8359556;28;20036;-53
2023/12/14 09:51:31;;;;;;;0.20;0.20;;;19.20;53.70;;;;;;8359418;28;20467;-51
2023/12/14 09:55:32;;;;;;;0.45;0.45;;;19.20;53.70;;;;;;8359315;28;20055;-51
2023/12/14 09:59:33;;;;;;;0.35;0.30;;;19.20;53.80;;;;;;8359435;28;20040;-51
2023/12/14 10:03:34;;;;;;;1.23;0.45;;;19.10;53.80;;;;;;8359189;28;20033;-49
2023/12/14 10:07:41;;;;;;;0.40;0.40;;;19.10;53.80;;;;;;8359946;28;20025;-50
2023/12/14 10:11:43;;;;;;;0.65;0.60;;;19.10;53.80;;;;;;8365692;28;20039;-52
2023/12/14 10:15:45;;;;;;;0.38;0.30;;;19.10;53.80;;;;;;8365341;28;20475;-52
2023/12/14 10:19:46;;;;;;;0.22;0.22;;;19.20;53.90;;;;;;8365285;28;20060;-52
2023/12/14 10:23:47;;;;;;;0.40;0.30;;;19.20;53.80;;;;;;8365422;28;20090;-52
2023/12/14 10:27:52;;;;;;;0.38;0.30;;;19.20;53.80;;;;;;8365120;28;20036;-51
2023/12/14 10:31:54;;;;;;;0.30;0.30;;;19.20;53.70;;;;;;8364801;28;20391;-52
2023/12/14 10:35:55;;;;;;;0.30;0.30;;;19.20;53.70;;;;;;8364946;28;20041;-49
2023/12/14 10:39:57;;;;;;;0.30;0.30;;;19.20;53.70;;;;;;8364491;28;20053;-51
2023/12/14 10:43:59;;;;;;;;;;;19.20;53.70;;;;;;8363753;28;20033;-51
2023/12/14 10:48:01;;;;;;;0.28;0.28;;;19.20;53.70;;;;;;8364542;28;19916;-51
2023/12/14 10:52:03;;;;;;;0.30;0.30;;;19.10;53.70;;;;;;8364266;28;20029;-51
2023/12/14 10:56:09;;;;;;;0.25;0.25;;;19.20;53.80;;;;;;8364081;28;20037;-48
2023/12/14 11:00:10;;;;;;;0.40;0.40;;;19.10;53.80;;;;;;8364077;28;20107;-48
2023/12/14 11:04:14;;;;;;;0.30;0.30;;;19.20;53.80;;;;;;8364004;28;20029;-48
2023/12/14 11:08:15;;;;;;;0.30;0.30;;;19.20;53.80;;;;;;8364145;28;20549;-48
2023/12/14 11:12:20;;;;;;;0.93;0.55;;;19.20;53.70;;;;;;8363703;28;20397;-49
2023/12/14 11:16:22;;;;;;;1.35;0.30;;;19.20;53.70;;;;;;8363625;28;20043;-49
2023/12/14 11:20:27;;;;;;;0.28;0.20;;;19.20;53.70;;;;;;8362273;28;20063;-48
2023/12/14 11:24:27;;;;;;;0.55;0.43;;;19.20;53.80;;;;;;8363590;28;20479;-48
2023/12/14 11:28:30;;;;;;;0.40;0.40;;;19.20;53.80;;;;;;8363370;28;20421;-48
2023/12/14 11:32:30;;;;;;;0.32;0.32;;;19.20;53.80;;;;;;8363418;28;20060;-48
2023/12/14 11:36:31;;;;;;;0.70;0.30;;;19.20;53.70;;;;;;8363081;28;20080;-49
2023/12/14 11:40:32;;;;;;;0.30;0.30;;;19.20;53.70;;;;;;8362860;28;20025;-49
2023/12/14 11:44:33;;;;;;;0.20;0.20;;;19.20;53.70;;;;;;8362770;28;20061;-51
2023/12/14 11:48:33;;;;;;;0.30;0.30;;;19.20;53.70;;;;;;8362752;28;20185;-48
2023/12/14 11:52:34;;;;;;;0.47;0.30;;;19.20;53.70;;;;;;8362594;28;20033;-50
2023/12/14 11:56:35;;;;;;;0.30;0.30;;;19.20;53.70;;;;;;8362160;28;20502;-48
2023/12/14 12:00:37;;;;;;;0.30;0.30;;;19.20;53.80;;;;;;8362440;28;20087;-49
2023/12/14 12:04:49;;;;;;;0.20;0.20;;;19.20;53.80;;;;;;8361942;28;20167;-51
2023/12/14 12:08:50;;;;;;;0.20;0.20;;;19.20;53.80;;;;;;8361974;28;20025;-50
2023/12/14 12:13:02;;;;;;;0.20;0.20;;;19.10;53.80;;;;;;8361936;28;20041;-52
2023/12/14 12:17:05;;;;;;;0.30;0.30;;;19.10;53.70;;;;;;8361689;28;20106;-50
2023/12/14 12:21:08;;;;;;;0.30;0.30;;;19.20;53.80;;;;;;8360844;28;20029;-51
2023/12/14 12:25:08;;;;;;;0.28;0.20;;;19.20;53.80;;;;;;8361506;28;20037;-51
2023/12/14 12:29:09;;;;;;;0.20;0.20;;;19.20;53.70;;;;;;8361679;28;20518;-50
2023/12/14 12:33:10;;;;;;;0.32;0.30;;;19.20;53.70;;;;;;8361301;28;20116;-49
2023/12/14 12:37:10;;;;;;;0.45;0.30;;;19.20;53.70;;;;;;8360748;28;20073;-53
2023/12/14 12:41:11;;;;;;;0.30;0.30;;;19.20;53.70;;;;;;8361029;28;20033;-51
2023/12/14 12:45:12;;;;;;;0.55;0.40;;;19.20;53.70;;;;;;8360891;28;20036;-50
2023/12/14 12:49:13;;;;;;;0.35;0.35;;;19.20;53.70;;;;;;8361260;28;20025;-52
2023/12/14 12:53:13;;;;;;;0.30;0.28;;;19.20;53.70;;;;;;8360566;28;20037;-50
2023/12/14 12:57:14;;;;;;;0.30;0.30;;;19.20;53.70;;;;;;8360364;28;20027;-51
2023/12/14 13:01:15;;;;;;;0.30;0.30;;;19.20;53.80;;;;;;8360532;28;20486;-51
2023/12/14 13:05:15;;;;;;;0.52;0.30;;;19.20;53.70;;;;;;8361246;28;20552;-51
2023/12/14 13:09:17;;;;;;;0.40;0.40;;;19.20;53.80;;;;;;8360782;28;20082;-50
2023/12/14 13:13:17;;;;;;;0.30;0.30;;;19.20;53.70;;;;;;8360185;28;20124;-51
2023/12/14 13:17:18;;;;;;;0.40;0.40;;;19.20;53.70;;;;;;8360276;28;20029;-51
2023/12/14 13:21:22;;;;;;;0.30;0.30;;;19.20;53.70;;;;;;8359829;28;20036;-50
2023/12/14 13:25:25;;;;;;;0.30;0.30;;;19.20;53.70;;;;;;8359980;28;20044;-51
2023/12/14 13:29:26;;;;;;;0.38;0.38;;;19.20;53.70;;;;;;8359645;28;20033;-52
2023/12/14 13:33:27;;;;;;;0.30;0.30;;;19.20;53.70;;;;;;8359848;28;20063;-52
2023/12/14 13:37:27;;;;;;;0.30;0.30;;;19.20;53.80;;;;;;8359582;28;20415;-52
2023/12/14 13:41:33;;;;;;;0.65;0.40;;;19.20;53.80;;;;;;8359573;28;20049;-52
2023/12/14 13:45:34;;;;;;;0.28;0.28;;;19.20;53.70;;;;;;8365410;28;20105;-52
2023/12/14 13:49:34;;;;;;;0.45;0.30;;;19.20;53.70;;;;;;8365085;28;20033;-52
2023/12/14 13:53:35;;;;;;;0.73;0.73;;;19.20;53.60;;;;;;8366195;28;20032;-52
2023/12/14 13:57:36;;;;;;;0.30;0.30;;;19.20;53.60;;;;;;8365782;28;20021;-51
2023/12/14 14:01:37;;;;;;;0.35;0.35;;;19.20;53.60;;;;;;8366068;28;20551;-52
2023/12/14 14:05:38;;;;;;;0.22;0.22;;;19.20;53.60;;;;;;8365616;28;20037;-52
2023/12/14 14:09:39;;;;;;;0.25;0.20;;;19.20;53.70;;;;;;8365338;28;20482;-52
2023/12/14 14:13:40;;;;;;;0.40;0.40;;;19.20;53.70;;;;;;8365747;28;20036;-52
2023/12/14 14:17:41;;;;;;;0.30;0.30;;;19.20;53.70;;;;;;8365422;28;20031;-52
2023/12/14 14:21:42;;;;;;;0.30;0.20;;;19.20;53.70;;;;;;8365246;28;20041;-51
2023/12/14 14:25:43;;;;;;;0.28;0.28;;;19.20;53.70;;;;;;8365272;28;20043;-52
2023/12/14 14:29:43;;;;;;;0.30;0.30;;;19.20;53.70;;;;;;8365084;28;20036;-52
2023/12/14 14:33:44;;;;;;;0.43;0.30;;;19.20;53.70;;;;;;8365187;28;20095;-51
2023/12/14 14:37:45;;;;;;;0.25;0.25;;;19.20;53.70;;;;;;8364769;28;20056;-52
2023/12/14 14:41:46;;;;;;;0.45;0.40;;;19.20;53.70;;;;;;8365283;28;20047;-51
2023/12/14 14:45:47;;;;;;;0.28;0.28;;;19.20;53.70;;;;;;8364786;28;20478;-50
2023/12/14 14:49:47;;;;;;;0.45;0.45;;;19.20;53.70;;;;;;8364274;28;20033;-50
2023/12/14 14:53:48;;;;;;;0.35;0.30;;;19.20;53.70;;;;;;8363551;28;20056;-52
2023/12/14 14:57:49;;;;;;;0.22;0.20;;;19.20;53.70;;;;;;8363822;28;20029;-51
2023/12/14 15:01:50;;;;;;;0.35;0.35;;;19.20;53.70;;;;;;8363954;28;20045;-52
2023/12/14 15:05:51;;;;;;;0.30;0.30;;;19.20;53.70;;;;;;8364564;28;20438;-50
2023/12/14 15:09:51;;;;;;;0.38;0.30;;;19.20;53.70;;;;;;8363831;28;20059;-50
2023/12/14 15:13:52;;;;;;;0.30;0.30;;;19.20;53.60;;;;;;8364022;28;20036;-50
2023/12/14 15:17:53;;;;;;;0.30;0.30;;;19.20;53.70;;;;;;8364072;28;20029;-50
2023/12/14 15:21:54;;;;;;;0.40;0.40;;;19.20;53.70;;;;;;8363789;28;20407;-51
2023/12/14 15:25:55;;;;;;;0.30;0.30;;;19.20;53.60;;;;;;8363658;28;20037;-51
2023/12/14 15:29:55;;;;;;;0.38;0.25;;;19.20;53.70;;;;;;8363698;28;20082;-50
2023/12/14 15:33:56;;;;;;;0.47;0.30;;;19.20;53.60;;;;;;8363625;28;20067;-51
2023/12/14 15:37:57;;;;;;;0.40;0.40;;;19.20;53.70;;;;;;8363400;28;20049;-55
2023/12/14 15:41:57;;;;;;;0.30;0.30;;;19.20;53.60;;;;;;8363116;28;20032;-55
2023/12/14 15:45:58;;;;;;;0.30;0.30;;;19.20;53.70;;;;;;8363219;28;20067;-55
2023/12/14 15:49:59;;;;;;;0.30;0.30;;;19.20;53.70;;;;;;8362771;28;20036;-55
2023/12/14 15:53:59;;;;;;;0.30;0.30;;;19.20;53.70;;;;;;8363046;28;20405;-54
2023/12/14 15:58:00;;;;;;;0.20;0.20;;;19.20;53.70;;;;;;8362765;28;20037;-55
2023/12/14 16:02:01;;;;;;;0.25;0.25;;;19.20;53.70;;;;;;8362398;28;20040;-54
2023/12/14 16:06:02;;;;;;;0.55;0.43;;;19.20;53.70;;;;;;8362193;28;20037;-55
2023/12/14 16:10:03;;;;;;;0.60;0.30;;;19.20;53.70;;;;;;8362285;28;20037;-54
2023/12/14 16:14:04;;;;;;;0.40;0.40;;;19.20;53.70;;;;;;8360897;28;20503;-54
2023/12/14 16:18:05;;;;;;;0.30;0.30;;;19.20;53.70;;;;;;8362224;28;20033;-54
2023/12/14 16:22:05;;;;;;;0.30;0.30;;;19.20;53.70;;;;;;8361838;28;20033;-53
2023/12/14 16:26:08;;;;;;;0.20;0.20;;;19.20;53.70;;;;;;8361780;28;20048;-52
2023/12/14 16:30:10;;;;;;;0.50;0.30;;;19.20;53.60;;;;;;8361429;28;20025;-55
2023/12/14 16:34:10;;;;;;;;;;;19.20;53.60;;;;;;8361986;28;20037;-53
2023/12/14 16:38:11;;;;;;;0.70;0.40;;;19.20;53.60;;;;;;8361212;28;19970;-55
2023/12/14 16:42:12;;;;;;;0.30;0.30;;;19.20;53.70;;;;;;8361488;28;20051;-55
2023/12/14 16:46:17;;;;;;;0.28;0.28;;;19.20;53.70;;;;;;8361238;28;20037;-55
2023/12/14 16:50:18;;;;;;;0.22;0.22;;;19.20;53.70;;;;;;8360906;28;20032;-55
2023/12/14 16:54:19;;;;;;;0.30;0.30;;;19.20;53.60;;;;;;8361146;28;20029;-54
2023/12/14 16:58:19;;;;;;;0.45;0.30;;;19.20;53.60;;;;;;8359599;28;20029;-54
2023/12/14 17:02:20;;;;;;;0.30;0.30;;;19.20;53.70;;;;;;8360781;28;20032;-54
2023/12/14 17:06:22;;;;;;;0.45;0.45;;;19.20;53.70;;;;;;8360522;28;20048;-54
2023/12/14 17:10:23;;;;;;;0.30;0.30;;;19.10;53.70;;;;;;8360612;28;20025;-54
2023/12/14 17:14:23;;;;;;;0.45;0.30;;;19.10;53.70;;;;;;8360479;28;20561;-54
2023/12/14 17:18:24;;;;;;;0.25;0.25;;;19.10;53.70;;;;;;8359624;28;20449;-54
2023/12/14 17:22:25;;;;;;;0.32;0.32;;;19.10;53.80;;;;;;8360200;28;20394;-53
2023/12/14 17:26:27;;;;;;;0.40;0.40;;;19.10;53.80;;;;;;8359962;28;20151;-55
2023/12/14 17:30:28;;;;;;;0.20;0.20;;;19.10;53.70;;;;;;8359974;28;20033;-54
2023/12/14 17:34:29;;;;;;;0.20;0.20;;;19.20;54.30;;;;;;8360235;28;20033;-55
2023/12/14 17:38:30;;;;;;;0.40;0.40;;;19.20;53.70;;;;;;8359949;28;20073;-54
2023/12/14 17:42:31;;;;;;;0.40;0.40;;;19.20;53.60;;;;;;8359809;28;20084;-55
2023/12/14 17:46:31;;;;;;;0.20;0.20;;;19.20;54.10;;;;;;8359786;28;20118;-54
2023/12/14 17:50:32;;;;;;;0.40;0.40;;;19.20;53.60;;;;;;8359857;28;20052;-55
2023/12/14 17:54:33;;;;;;;0.30;0.30;;;19.20;53.60;;;;;;8359685;28;20032;-53
2023/12/14 17:58:33;;;;;;;0.30;0.30;;;19.20;53.60;;;;;;8359762;28;20033;-53
2023/12/14 18:02:34;;;;;;;0.20;0.20;;;19.20;53.50;;;;;;8359767;28;20121;-53
2023/12/14 18:06:41;;;;;;;0.35;0.30;;;19.20;53.60;;;;;;8359461;28;20036;-51
2023/12/14 18:10:42;;;;;;;0.40;0.40;;;19.20;53.50;;;;;;8359497;28;20037;-52
2023/12/14 18:14:42;;;;;;;0.30;0.30;;;19.20;53.60;;;;;;8359497;28;20088;-52
2023/12/14 18:18:43;;;;;;;0.30;0.30;;;19.20;53.60;;;;;;8359299;28;20061;-52
2023/12/14 18:22:44;;;;;;;0.40;0.40;;;19.20;53.60;;;;;;8359612;28;20060;-52
2023/12/14 18:26:44;;;;;;;0.85;0.40;;;19.20;53.60;;;;;;8359023;28;20045;-52
2023/12/14 18:30:46;;;;;;;0.30;0.30;;;19.20;53.60;;;;;;8361927;28;20689;-51
2023/12/14 18:34:47;;;;;;;0.43;0.40;;;19.20;53.60;;;;;;8365302;28;20382;-52
2023/12/14 18:38:48;;;;;;;0.40;0.40;;;19.20;53.60;;;;;;8365062;28;20048;-52
2023/12/14 18:42:49;;;;;;;0.35;0.35;;;19.20;53.60;;;;;;8365016;28;20441;-52
2023/12/14 18:46:49;;;;;;;0.30;0.30;;;19.20;53.70;;;;;;8363544;28;20037;-53
2023/12/14 18:50:50;;;;;;;0.50;0.50;;;19.20;53.70;;;;;;8363437;28;20037;-51
2023/12/14 18:54:51;;;;;;;0.47;0.40;;;19.20;53.70;;;;;;8364103;28;20039;-53
2023/12/14 18:58:51;;;;;;;0.30;0.30;;;19.10;53.70;;;;;;8364553;28;20078;-51
2023/12/14 19:02:52;;;;;;;0.30;0.30;;;19.10;53.80;;;;;;8364246;28;20045;-51
2023/12/14 19:06:53;;;;;;;0.28;0.28;;;19.10;53.80;;;;;;8364491;28;20532;-51
2023/12/14 19:10:53;;;;;;;0.30;0.30;;;19.10;53.80;;;;;;8364221;28;20120;-52
2023/12/14 19:14:55;;;;;;;0.40;0.40;;;19.10;53.80;;;;;;8364075;28;20044;-52
2023/12/14 19:18:56;;;;;;;0.30;0.30;;;19.10;53.70;;;;;;8363836;28;20025;-50
2023/12/14 19:22:56;;;;;;;0.25;0.25;;;19.10;53.60;;;;;;8363802;28;20490;-50
2023/12/14 19:26:57;;;;;;;0.40;0.40;;;19.20;53.60;;;;;;8363498;28;20036;-50
2023/12/14 19:30:58;;;;;;;0.38;0.30;;;19.20;53.60;;;;;;8363397;28;20037;-51
2023/12/14 19:34:58;;;;;;;0.32;0.32;;;19.20;53.60;;;;;;8363506;28;20391;-50
2023/12/14 19:39:03;;;;;;;0.32;0.32;;;19.20;53.60;;;;;;8363232;28;20073;-51
2023/12/14 19:43:04;;;;;;;0.40;0.40;;;19.20;53.50;;;;;;8362332;28;20037;-50
2023/12/14 19:47:05;;;;;;;0.63;0.30;;;19.20;53.50;;;;;;8363036;28;20051;-56
2023/12/14 19:51:06;;;;;;;0.70;0.40;;;19.20;53.50;;;;;;8362893;28;20037;-50
2023/12/14 19:55:10;;;;;;;0.30;0.30;;;19.20;53.50;;;;;;8362805;28;20033;-50
2023/12/14 19:59:10;;;;;;;0.43;0.43;;;19.20;53.50;;;;;;8362529;28;20433;-51
2023/12/14 20:03:12;;;;;;;0.40;0.40;;;19.20;53.50;;;;;;8363327;28;20037;-50
2023/12/14 20:07:13;;;;;;;0.38;0.30;;;19.20;53.50;;;;;;8362520;28;20061;-50
2023/12/14 20:11:17;;;;;;;0.30;0.30;;;19.20;53.60;;;;;;8362453;28;20033;-50
2023/12/14 20:15:18;;;;;;;0.75;0.43;;;19.20;53.60;;;;;;8360988;28;20056;-50
2023/12/14 20:19:19;;;;;;;0.40;0.40;;;19.20;53.60;;;;;;8362142;28;20033;-51
2023/12/14 20:23:19;;;;;;;0.50;0.50;;;19.20;53.60;;;;;;8361921;28;20045;-52
2023/12/14 20:27:20;;;;;;;0.30;0.30;;;19.20;53.60;;;;;;8361824;28;20036;-50
2023/12/14 20:31:21;;;;;;;0.20;0.20;;;19.20;53.50;;;;;;8361845;28;20068;-52
2023/12/14 20:35:22;;;;;;;0.68;0.40;;;19.20;53.50;;;;;;8361634;28;20029;-52
2023/12/14 20:39:22;;;;;;;0.30;0.30;;;19.20;53.50;;;;;;8361476;28;20132;-52
2023/12/14 20:43:23;;;;;;;0.57;0.55;;;19.20;53.50;;;;;;8361510;28;20045;-50
2023/12/14 20:47:24;;;;;;;0.30;0.30;;;19.20;53.50;;;;;;8361415;28;20037;-52
2023/12/14 20:51:25;;;;;;;0.40;0.40;;;19.20;53.50;;;;;;8361325;28;20350;-50
2023/12/14 20:55:25;;;;;;;0.40;0.40;;;19.20;53.50;;;;;;8361036;28;20067;-51